Time;durP1;ratioP1;P1;durP2;ratioP2;P2;SDS_P1;SDS_P2;PMS_P1;PMS_P2;Temp;Humidity;BMP_temperature;BMP_pressure;BME280_temperature;BME280_humidity;BME280_pressure;Samples;Min_cycle;Max_cycle;Signal;HPM_P1;HPM_P2
2022/02/25 00:01:22;;;;;;;11.25;8.10;;;10.00;96.70;;;;;;5118922;27;20043;-79
2022/02/25 00:03:51;;;;;;;12.57;8.30;;;10.00;96.70;;;;;;5120900;27;20518;-79
2022/02/25 00:06:21;;;;;;;10.88;7.90;;;10.10;96.70;;;;;;5112302;27;20050;-79
2022/02/25 00:08:49;;;;;;;11.60;7.50;;;10.00;96.70;;;;;;5112260;27;20115;-79
2022/02/25 00:11:17;;;;;;;11.82;7.30;;;10.00;96.70;;;;;;5104578;27;20749;-79
2022/02/25 00:13:45;;;;;;;10.45;6.95;;;10.00;96.70;;;;;;5109258;27;20035;-79
2022/02/25 00:16:13;;;;;;;10.15;7.30;;;10.00;96.70;;;;;;5117382;27;20553;-79
2022/02/25 00:18:41;;;;;;;11.32;6.38;;;10.00;96.70;;;;;;5122314;27;20463;-79
2022/02/25 00:21:10;;;;;;;9.82;6.38;;;10.00;96.70;;;;;;5117303;27;20047;-80
2022/02/25 00:23:39;;;;;;;12.40;6.47;;;9.90;96.70;;;;;;5117848;27;20031;-79
2022/02/25 00:26:08;;;;;;;10.43;6.38;;;9.90;96.70;;;;;;5113900;27;20169;-79
2022/02/25 00:28:36;;;;;;;9.25;6.10;;;10.00;96.70;;;;;;5111757;27;20043;-79
2022/02/25 00:31:04;;;;;;;10.73;6.47;;;10.00;96.70;;;;;;5102114;27;20131;-79
2022/02/25 00:33:32;;;;;;;9.43;6.25;;;10.00;96.70;;;;;;5093278;27;20042;-80
2022/02/25 00:36:01;;;;;;;10.45;6.35;;;10.00;96.70;;;;;;5115730;27;20043;-80
2022/02/25 00:38:29;;;;;;;9.07;5.97;;;10.00;96.70;;;;;;5121430;27;20452;-80
2022/02/25 00:40:58;;;;;;;10.43;6.70;;;10.00;96.70;;;;;;5115738;27;20035;-80
2022/02/25 00:43:26;;;;;;;8.98;5.88;;;9.90;96.70;;;;;;5115492;27;20055;-79
2022/02/25 00:45:54;;;;;;;7.90;5.95;;;9.90;96.70;;;;;;5112699;27;20032;-79
2022/02/25 00:48:23;;;;;;;10.38;5.68;;;9.90;96.70;;;;;;5104359;27;20054;-79
2022/02/25 00:50:51;;;;;;;8.77;5.50;;;9.90;96.70;;;;;;5115568;27;20377;-79
2022/02/25 00:53:19;;;;;;;10.70;6.38;;;9.90;96.70;;;;;;5121129;27;20039;-79
2022/02/25 00:55:47;;;;;;;10.43;6.43;;;9.90;96.70;;;;;;5119662;27;20039;-79
2022/02/25 00:58:16;;;;;;;9.23;5.93;;;9.90;96.70;;;;;;5117222;27;20047;-79
2022/02/25 01:00:44;;;;;;;12.50;7.10;;;9.90;96.70;;;;;;5115245;27;20035;-79
2022/02/25 01:03:12;;;;;;;11.40;6.65;;;9.90;96.70;;;;;;5108700;27;20047;-79
2022/02/25 01:05:40;;;;;;;9.80;6.05;;;9.90;96.70;;;;;;5110692;27;20629;-79
2022/02/25 01:08:09;;;;;;;12.70;5.95;;;9.90;96.70;;;;;;5115874;27;20913;-80
2022/02/25 01:10:38;;;;;;;8.55;5.90;;;9.90;96.70;;;;;;5114739;27;20027;-79
2022/02/25 01:13:09;;;;;;;9.45;5.53;;;9.90;96.70;;;;;;5117985;27;20035;-79
2022/02/25 01:15:39;;;;;;;9.63;5.20;;;9.90;96.70;;;;;;5119157;27;20039;-80
2022/02/25 01:18:07;;;;;;;11.88;6.00;;;9.90;96.70;;;;;;5116009;27;20059;-79
2022/02/25 01:20:37;;;;;;;9.25;5.97;;;9.90;96.70;;;;;;5116611;27;20039;-80
2022/02/25 01:23:07;;;;;;;9.32;5.22;;;9.90;96.70;;;;;;5116766;27;21285;-79
2022/02/25 01:25:35;;;;;;;7.85;4.88;;;9.90;96.70;;;;;;5120541;27;20047;-80
2022/02/25 01:28:03;;;;;;;7.38;5.07;;;9.90;96.70;;;;;;5116668;27;20138;-80
2022/02/25 01:30:31;;;;;;;6.32;5.07;;;9.80;96.70;;;;;;5115693;27;20127;-79
2022/02/25 01:33:01;;;;;;;6.85;5.03;;;9.80;96.70;;;;;;5112877;27;20040;-79
2022/02/25 01:35:29;;;;;;;7.70;5.07;;;9.80;96.70;;;;;;5100607;28;20079;-79
2022/02/25 01:37:57;;;;;;;7.53;5.20;;;9.70;96.70;;;;;;5094622;27;20043;-80
2022/02/25 01:40:25;;;;;;;7.68;4.65;;;9.80;96.70;;;;;;5094196;27;20047;-80
2022/02/25 01:42:53;;;;;;;7.53;5.05;;;9.80;96.70;;;;;;5118975;27;20036;-79
2022/02/25 01:45:22;;;;;;;7.93;4.65;;;9.80;96.70;;;;;;5118520;27;20112;-79
2022/02/25 01:47:50;;;;;;;7.40;4.90;;;9.80;96.70;;;;;;5111730;27;20162;-79
2022/02/25 01:50:20;;;;;;;6.95;4.75;;;9.80;96.70;;;;;;5116075;27;20563;-79
2022/02/25 01:52:57;;;;;;;7.25;4.93;;;9.80;96.70;;;;;;5109605;27;20052;-79
2022/02/25 01:55:25;;;;;;;8.23;5.40;;;9.80;96.70;;;;;;5106663;27;20051;-79
2022/02/25 01:57:53;;;;;;;7.28;4.72;;;9.80;96.70;;;;;;5113891;27;20480;-79
2022/02/25 02:00:22;;;;;;;8.95;4.97;;;9.80;96.70;;;;;;5113306;27;20526;-81
2022/02/25 02:02:51;;;;;;;5.63;4.00;;;9.80;96.70;;;;;;5115705;27;20115;-79
2022/02/25 02:05:21;;;;;;;6.90;4.38;;;9.80;96.70;;;;;;5118355;27;20047;-79
2022/02/25 02:07:51;;;;;;;5.75;4.45;;;9.70;96.70;;;;;;5113891;27;20043;-79
2022/02/25 02:10:20;;;;;;;8.00;4.75;;;9.70;96.70;;;;;;5107744;27;20530;-80
2022/02/25 02:12:49;;;;;;;7.13;4.47;;;9.70;96.70;;;;;;5111465;27;20032;-79
2022/02/25 02:15:17;;;;;;;8.63;4.65;;;9.70;96.70;;;;;;5114732;27;20047;-79
2022/02/25 02:17:45;;;;;;;7.50;4.65;;;9.70;96.70;;;;;;5112878;27;20035;-80
2022/02/25 02:20:13;;;;;;;7.30;4.32;;;9.70;96.70;;;;;;5121644;27;20040;-80
2022/02/25 02:22:43;;;;;;;7.75;4.60;;;9.70;96.70;;;;;;5117786;27;20146;-80
2022/02/25 02:25:11;;;;;;;8.02;4.43;;;9.70;96.70;;;;;;5115306;27;20060;-79
2022/02/25 02:30:26;;;;;;;6.40;4.20;;;9.70;96.70;;;;;;5109958;27;20086;-80
2022/02/25 02:32:54;;;;;;;5.50;3.85;;;9.60;96.70;;;;;;5113235;27;20801;-79
2022/02/25 02:35:22;;;;;;;6.05;4.25;;;9.60;96.70;;;;;;5115162;27;20379;-79
2022/02/25 02:37:52;;;;;;;4.93;4.13;;;9.60;96.70;;;;;;5111335;27;20039;-80
2022/02/25 02:40:20;;;;;;;8.02;4.45;;;9.70;96.70;;;;;;5110670;27;20450;-79
2022/02/25 02:42:48;;;;;;;8.23;4.20;;;9.60;96.70;;;;;;5113412;27;20489;-80
2022/02/25 02:45:20;;;;;;;7.90;4.40;;;9.70;96.70;;;;;;5091692;27;20050;-80
2022/02/25 02:47:48;;;;;;;5.30;4.10;;;9.70;96.70;;;;;;5099322;27;20070;-80
2022/02/25 02:50:16;;;;;;;8.10;3.92;;;9.60;96.70;;;;;;5117372;27;20134;-80
2022/02/25 02:52:44;;;;;;;5.95;4.43;;;9.70;96.70;;;;;;5121943;27;20043;-80
2022/02/25 02:55:14;;;;;;;7.00;3.80;;;9.70;96.70;;;;;;5120294;27;20930;-81
2022/02/25 02:57:43;;;;;;;6.25;4.22;;;9.70;96.70;;;;;;5103974;27;20564;-81
2022/02/25 03:00:12;;;;;;;7.60;3.80;;;9.60;96.70;;;;;;5116030;27;20074;-80
2022/02/25 03:02:40;;;;;;;9.00;5.03;;;9.50;96.70;;;;;;5122598;27;20125;-80
2022/02/25 03:05:09;;;;;;;6.68;4.57;;;9.60;96.70;;;;;;5119862;27;20043;-80
2022/02/25 03:07:39;;;;;;;8.23;4.45;;;9.60;96.70;;;;;;5116033;27;20092;-80
2022/02/25 03:10:10;;;;;;;7.10;4.30;;;9.60;96.70;;;;;;5122447;27;20050;-80
2022/02/25 03:12:41;;;;;;;6.10;3.85;;;9.60;96.70;;;;;;5119692;27;20071;-80
2022/02/25 03:15:13;;;;;;;6.85;3.72;;;9.60;96.70;;;;;;5120048;27;20039;-79
2022/02/25 03:17:42;;;;;;;7.88;4.18;;;9.60;96.70;;;;;;5114403;27;20088;-79
2022/02/25 03:20:14;;;;;;;5.78;3.60;;;9.70;96.70;;;;;;5121392;27;20383;-80
2022/02/25 03:22:42;;;;;;;6.80;4.32;;;9.70;96.70;;;;;;5118266;27;20120;-79
2022/02/25 03:25:16;;;;;;;7.70;4.22;;;9.70;96.70;;;;;;5119291;27;20088;-79
2022/02/25 03:27:46;;;;;;;7.85;4.57;;;9.70;96.70;;;;;;5122830;27;20047;-79
2022/02/25 03:30:17;;;;;;;5.25;3.83;;;9.70;96.70;;;;;;5123452;27;20044;-79
2022/02/25 03:32:47;;;;;;;7.45;4.22;;;9.60;96.70;;;;;;5114240;27;20504;-78
2022/02/25 03:35:16;;;;;;;7.88;4.45;;;9.70;96.70;;;;;;5121411;27;20055;-79
2022/02/25 03:37:44;;;;;;;7.57;4.75;;;9.70;96.70;;;;;;5095167;27;20035;-78
2022/02/25 03:40:13;;;;;;;6.72;4.10;;;9.70;96.70;;;;;;5100277;27;20073;-78
2022/02/25 03:42:42;;;;;;;6.05;3.70;;;9.70;96.70;;;;;;5117452;27;20043;-79
2022/02/25 03:45:13;;;;;;;6.57;3.83;;;9.80;96.70;;;;;;5118442;27;20500;-79
2022/02/25 03:47:41;;;;;;;6.88;4.38;;;9.70;96.70;;;;;;5112792;27;20044;-80
2022/02/25 03:50:10;;;;;;;5.63;4.13;;;9.70;96.70;;;;;;5116446;27;20074;-80
2022/02/25 03:52:38;;;;;;;6.57;4.15;;;9.70;96.70;;;;;;5120092;27;20469;-80
2022/02/25 03:55:07;;;;;;;4.97;3.50;;;9.60;96.70;;;;;;5116606;27;20054;-80
2022/02/25 03:57:36;;;;;;;7.05;4.18;;;9.70;96.70;;;;;;5125698;27;20126;-80
2022/02/25 04:00:06;;;;;;;7.32;4.68;;;9.70;96.70;;;;;;5113636;27;20509;-80
2022/02/25 04:02:42;;;;;;;7.05;3.35;;;9.70;96.70;;;;;;5102070;27;20134;-80
2022/02/25 04:05:10;;;;;;;5.93;3.90;;;9.70;96.70;;;;;;5113877;27;20060;-80
2022/02/25 04:07:40;;;;;;;6.20;4.10;;;9.70;96.70;;;;;;5105630;27;21048;-80
2022/02/25 04:10:09;;;;;;;8.48;4.15;;;9.80;96.70;;;;;;5095527;27;20105;-80
2022/02/25 04:12:37;;;;;;;6.65;4.30;;;9.70;96.70;;;;;;5102820;27;20130;-80
2022/02/25 04:15:07;;;;;;;6.82;3.70;;;9.70;96.70;;;;;;5100925;27;20364;-80
2022/02/25 04:17:35;;;;;;;7.07;4.30;;;9.70;96.70;;;;;;5122395;27;20399;-80
2022/02/25 04:20:06;;;;;;;5.50;4.13;;;9.70;96.70;;;;;;5108515;27;20073;-80
2022/02/25 04:22:34;;;;;;;6.63;4.32;;;9.70;96.70;;;;;;5118238;27;20085;-81
2022/02/25 04:25:02;;;;;;;4.57;3.67;;;9.70;96.70;;;;;;5114692;27;20111;-80
2022/02/25 04:27:30;;;;;;;7.00;4.45;;;9.70;96.70;;;;;;5115411;27;20048;-80
2022/02/25 04:29:58;;;;;;;6.63;3.33;;;9.70;96.70;;;;;;5124342;27;20108;-81
2022/02/25 04:32:26;;;;;;;5.75;3.80;;;9.70;96.70;;;;;;5116463;27;20177;-80
2022/02/25 04:34:54;;;;;;;6.80;3.92;;;9.70;96.70;;;;;;5117539;27;20055;-80
2022/02/25 04:37:24;;;;;;;7.28;4.18;;;9.80;96.70;;;;;;5097891;27;20041;-80
2022/02/25 04:39:52;;;;;;;6.35;3.92;;;9.70;96.70;;;;;;5119622;27;20500;-80
2022/02/25 04:42:20;;;;;;;5.60;3.85;;;9.80;96.70;;;;;;5116408;27;20063;-81
2022/02/25 04:44:48;;;;;;;6.28;3.95;;;9.80;96.70;;;;;;5116601;27;20515;-80
2022/02/25 04:47:16;;;;;;;5.57;3.83;;;9.80;96.70;;;;;;5109614;27;20139;-80
2022/02/25 04:49:44;;;;;;;4.93;3.78;;;9.90;96.70;;;;;;5117216;27;20061;-80
2022/02/25 04:52:13;;;;;;;9.38;4.28;;;9.80;96.70;;;;;;5110581;27;20550;-80
2022/02/25 04:54:44;;;;;;;8.32;4.07;;;9.90;96.70;;;;;;5103968;27;20039;-80
2022/02/25 04:57:12;;;;;;;7.45;3.97;;;9.90;96.70;;;;;;5118170;27;20052;-81
2022/02/25 04:59:40;;;;;;;6.88;3.95;;;9.80;96.70;;;;;;5120622;27;20541;-80
2022/02/25 05:02:08;;;;;;;5.95;4.43;;;9.90;96.70;;;;;;5100166;27;20065;-80
2022/02/25 05:04:36;;;;;;;6.30;3.72;;;9.90;96.70;;;;;;5099664;27;20356;-80
2022/02/25 05:07:04;;;;;;;7.78;4.07;;;9.90;96.70;;;;;;5114609;27;20058;-80
2022/02/25 05:09:32;;;;;;;6.03;4.03;;;9.90;96.70;;;;;;5119194;27;20087;-80
2022/02/25 05:12:02;;;;;;;7.53;3.95;;;9.90;96.70;;;;;;5097547;27;20043;-80
2022/02/25 05:20:23;;;;;;;9.87;4.83;;;9.90;96.70;;;;;;5117516;27;20046;-80
2022/02/25 05:22:53;;;;;;;6.30;4.07;;;9.90;96.70;;;;;;5111618;27;20035;-80
2022/02/25 05:25:23;;;;;;;7.22;4.00;;;9.90;96.70;;;;;;5114616;27;20577;-80
2022/02/25 05:27:53;;;;;;;6.18;3.78;;;9.90;96.70;;;;;;5103760;27;20099;-80
2022/02/25 05:30:22;;;;;;;9.07;3.90;;;10.00;96.70;;;;;;5113984;27;20050;-81
2022/02/25 05:32:50;;;;;;;6.32;4.15;;;10.00;96.70;;;;;;5112217;27;20100;-80
2022/02/25 05:35:20;;;;;;;5.82;3.70;;;10.00;96.70;;;;;;5116919;27;20055;-81
2022/02/25 05:37:50;;;;;;;6.05;3.83;;;10.00;96.70;;;;;;5113640;27;20043;-84
2022/02/25 05:40:20;;;;;;;5.82;3.50;;;10.00;96.70;;;;;;5112659;27;20035;-80
2022/02/25 05:42:53;;;;;;;9.45;3.80;;;10.00;96.70;;;;;;5100132;27;20047;-79
2022/02/25 05:45:21;;;;;;;6.72;3.97;;;10.00;96.70;;;;;;5113643;27;20050;-80
2022/02/25 05:47:52;;;;;;;7.63;3.67;;;10.00;96.70;;;;;;5114076;27;20086;-80
2022/02/25 05:50:22;;;;;;;7.68;4.35;;;10.00;96.70;;;;;;5115464;27;20047;-80
2022/02/25 05:52:50;;;;;;;10.68;4.38;;;10.00;96.70;;;;;;5110149;27;20051;-80
2022/02/25 05:55:20;;;;;;;6.45;3.78;;;10.00;96.70;;;;;;5112938;27;20043;-80
2022/02/25 05:57:50;;;;;;;6.55;4.35;;;10.00;96.70;;;;;;5115652;27;20031;-80
2022/02/25 06:00:20;;;;;;;8.90;4.40;;;10.00;96.70;;;;;;5101125;28;20058;-81
2022/02/25 06:02:49;;;;;;;8.52;4.38;;;10.00;96.70;;;;;;5111814;27;20043;-81
2022/02/25 06:05:19;;;;;;;6.82;4.38;;;10.00;96.70;;;;;;5102410;27;20258;-81
2022/02/25 06:07:47;;;;;;;8.57;5.07;;;10.00;96.70;;;;;;5099754;28;20040;-81
2022/02/25 06:10:16;;;;;;;5.53;4.13;;;10.00;96.70;;;;;;5117601;27;20039;-81
2022/02/25 06:12:44;;;;;;;7.70;4.53;;;9.90;96.70;;;;;;5096092;27;20035;-81
2022/02/25 06:15:12;;;;;;;6.13;4.20;;;9.90;96.70;;;;;;5096267;28;20047;-81
2022/02/25 06:17:46;;;;;;;6.72;4.45;;;9.90;96.70;;;;;;5114558;27;20032;-81
2022/02/25 06:20:14;;;;;;;8.77;4.85;;;9.90;96.70;;;;;;5113773;27;20039;-82
2022/02/25 06:22:42;;;;;;;7.97;4.35;;;9.90;96.70;;;;;;5115162;27;21131;-81
2022/02/25 06:25:11;;;;;;;6.57;4.30;;;9.90;96.70;;;;;;5116691;27;20043;-81
2022/02/25 06:27:39;;;;;;;8.63;4.80;;;9.90;96.70;;;;;;5113509;27;20043;-82
2022/02/25 06:30:10;;;;;;;6.47;4.45;;;9.90;96.70;;;;;;5116798;27;20460;-81
2022/02/25 06:32:38;;;;;;;7.18;4.55;;;9.90;96.70;;;;;;5120145;27;20189;-81
2022/02/25 06:35:11;;;;;;;7.65;3.97;;;9.90;96.70;;;;;;5124092;27;20051;-81
2022/02/25 06:37:39;;;;;;;6.65;4.10;;;9.90;96.70;;;;;;5099127;27;20086;-81
2022/02/25 06:40:09;;;;;;;7.82;4.72;;;9.90;96.70;;;;;;5095763;27;20088;-81
2022/02/25 06:42:38;;;;;;;7.25;4.18;;;9.90;96.70;;;;;;5103571;27;20062;-81
2022/02/25 06:45:20;;;;;;;7.90;4.50;;;10.00;96.70;;;;;;5122422;27;20039;-81
2022/02/25 06:47:48;;;;;;;6.82;3.90;;;9.90;96.70;;;;;;5102591;27;20453;-80
2022/02/25 06:50:18;;;;;;;7.80;3.97;;;10.00;96.70;;;;;;5113032;27;20059;-80
2022/02/25 06:52:47;;;;;;;8.70;4.53;;;10.00;96.70;;;;;;5110114;27;20040;-80
2022/02/25 06:55:16;;;;;;;7.28;4.13;;;10.00;96.70;;;;;;5120777;27;20047;-80
2022/02/25 06:58:03;;;;;;;5.55;3.47;;;10.00;96.70;;;;;;5120976;27;20081;-80
2022/02/25 07:00:31;;;;;;;6.95;3.67;;;10.10;96.70;;;;;;5096017;27;20640;-80
2022/02/25 07:03:00;;;;;;;5.75;3.70;;;10.10;96.70;;;;;;5110207;27;20109;-80
2022/02/25 07:05:30;;;;;;;6.80;3.90;;;10.10;96.70;;;;;;5118813;27;20046;-78
2022/02/25 07:07:59;;;;;;;5.75;3.70;;;10.10;96.70;;;;;;5113245;27;20042;-79
2022/02/25 07:10:32;;;;;;;5.30;3.65;;;10.20;96.70;;;;;;5116556;27;20058;-79
2022/02/25 07:13:00;;;;;;;5.43;3.28;;;10.20;96.70;;;;;;5106348;27;20115;-79
2022/02/25 07:15:30;;;;;;;5.18;3.65;;;10.20;96.70;;;;;;5118315;27;20047;-79
2022/02/25 07:17:58;;;;;;;4.93;3.28;;;10.30;96.70;;;;;;5120327;27;20043;-79
2022/02/25 07:20:29;;;;;;;4.72;3.28;;;10.30;96.70;;;;;;5119040;27;20035;-79
2022/02/25 07:22:59;;;;;;;5.45;2.90;;;10.30;96.70;;;;;;5098930;27;20142;-80
2022/02/25 07:25:27;;;;;;;10.55;3.80;;;10.40;96.70;;;;;;5114921;27;20086;-79
2022/02/25 07:27:56;;;;;;;3.53;3.03;;;10.30;96.70;;;;;;5099399;27;20050;-80
2022/02/25 07:30:26;;;;;;;5.70;3.35;;;10.20;96.70;;;;;;5115176;27;20039;-80
2022/02/25 07:32:55;;;;;;;7.30;4.07;;;10.30;96.70;;;;;;5112617;27;20483;-79
2022/02/25 07:35:24;;;;;;;6.07;3.72;;;10.40;96.70;;;;;;5127001;27;20055;-80
2022/02/25 07:37:54;;;;;;;7.63;4.00;;;10.40;96.70;;;;;;5119622;27;20040;-79
2022/02/25 07:40:23;;;;;;;8.02;3.88;;;10.40;96.70;;;;;;5116121;27;20932;-79
2022/02/25 07:42:51;;;;;;;5.20;3.17;;;10.40;96.70;;;;;;5101188;27;20059;-79
2022/02/25 07:45:20;;;;;;;5.78;3.40;;;10.40;96.70;;;;;;5120918;27;20041;-79
2022/02/25 07:47:48;;;;;;;4.53;3.30;;;10.40;96.70;;;;;;5100773;27;20400;-80
2022/02/25 07:50:17;;;;;;;5.82;3.22;;;10.50;96.70;;;;;;5114101;27;20489;-79
2022/02/25 07:52:46;;;;;;;7.15;3.38;;;10.50;96.70;;;;;;5118505;27;20126;-79
2022/02/25 07:55:16;;;;;;;6.35;3.45;;;10.60;96.70;;;;;;5116539;27;20072;-79
2022/02/25 07:57:44;;;;;;;6.55;3.60;;;10.60;96.70;;;;;;5113358;27;20084;-80
2022/02/25 08:00:29;;;;;;;4.57;3.20;;;10.60;96.70;;;;;;5106124;27;20050;-80
2022/02/25 08:02:58;;;;;;;5.38;2.63;;;10.60;96.70;;;;;;5113504;27;20046;-80
2022/02/25 08:05:30;;;;;;;8.00;3.58;;;10.70;96.70;;;;;;5115329;27;20423;-79
2022/02/25 08:07:59;;;;;;;4.55;2.80;;;10.70;96.70;;;;;;5112188;27;20392;-80
2022/02/25 08:10:32;;;;;;;6.70;3.22;;;10.70;96.70;;;;;;5103169;27;20039;-80
2022/02/25 08:13:02;;;;;;;6.43;2.72;;;10.70;96.70;;;;;;5122893;27;20129;-79
2022/02/25 08:15:33;;;;;;;6.15;3.10;;;10.80;96.70;;;;;;5115197;27;20116;-80
2022/02/25 08:18:02;;;;;;;4.38;2.60;;;10.80;96.70;;;;;;5102665;27;20052;-80
2022/02/25 08:20:32;;;;;;;6.45;2.90;;;10.90;96.70;;;;;;5131313;27;20039;-80
2022/02/25 08:23:02;;;;;;;7.18;3.22;;;10.90;96.70;;;;;;5114254;27;20054;-79
2022/02/25 08:25:36;;;;;;;4.85;3.25;;;11.00;96.70;;;;;;5115462;27;20130;-80
2022/02/25 08:28:06;;;;;;;6.38;3.53;;;11.00;96.70;;;;;;5117865;27;20040;-83
2022/02/25 08:30:34;;;;;;;6.38;2.60;;;11.00;96.70;;;;;;5111067;27;20229;-82
2022/02/25 08:33:02;;;;;;;7.28;3.30;;;11.10;96.70;;;;;;5111528;27;20124;-83
2022/02/25 08:35:34;;;;;;;3.88;2.47;;;11.20;96.70;;;;;;5118611;27;20048;-83
2022/02/25 08:38:03;;;;;;;4.35;2.65;;;11.30;96.70;;;;;;5115142;27;20050;-83
2022/02/25 08:40:33;;;;;;;5.30;2.65;;;11.30;96.70;;;;;;5111459;27;20039;-83
2022/02/25 08:43:05;;;;;;;6.68;2.75;;;11.40;96.70;;;;;;5107476;27;20051;-82
2022/02/25 08:45:34;;;;;;;5.45;2.47;;;11.40;96.70;;;;;;5113844;27;20067;-82
2022/02/25 08:48:02;;;;;;;6.25;3.30;;;11.50;96.70;;;;;;5117981;27;20083;-82
2022/02/25 08:50:30;;;;;;;5.70;3.13;;;11.50;96.70;;;;;;5117080;27;20046;-82
2022/02/25 08:52:59;;;;;;;5.93;2.83;;;11.60;96.70;;;;;;5100808;27;20067;-83
2022/02/25 08:55:27;;;;;;;6.07;2.80;;;11.70;96.70;;;;;;5115695;27;20035;-82
2022/02/25 08:57:57;;;;;;;8.27;3.45;;;11.70;96.70;;;;;;5114328;27;20500;-81
2022/02/25 09:00:25;;;;;;;8.65;3.33;;;11.80;96.70;;;;;;5116595;27;20035;-81
2022/02/25 09:02:54;;;;;;;7.70;3.92;;;11.80;96.70;;;;;;5113512;27;20408;-81
2022/02/25 09:09:12;;;;;;;7.53;3.45;;;11.90;96.70;;;;;;4962162;28;20151;-77
2022/02/25 09:11:44;;;;;;;7.25;3.33;;;12.00;96.70;;;;;;4959336;28;20053;-78
2022/02/25 09:14:14;;;;;;;5.82;3.33;;;12.00;96.70;;;;;;4961981;28;20046;-78
2022/02/25 09:16:45;;;;;;;7.40;3.88;;;12.10;96.70;;;;;;4960920;28;20041;-79
2022/02/25 09:19:13;;;;;;;8.38;3.97;;;12.10;96.70;;;;;;4963500;28;20543;-79
2022/02/25 09:21:42;;;;;;;8.95;4.35;;;12.10;96.70;;;;;;4968391;28;20437;-79
2022/02/25 09:24:10;;;;;;;5.68;3.40;;;12.10;96.70;;;;;;4964508;28;20046;-79
2022/02/25 09:26:38;;;;;;;5.57;3.45;;;12.10;96.70;;;;;;4979261;28;20038;-81
2022/02/25 09:29:07;;;;;;;8.07;3.45;;;12.00;96.70;;;;;;4943153;28;20133;-80
2022/02/25 09:31:36;;;;;;;9.25;3.90;;;12.10;96.70;;;;;;4963943;28;20050;-80
2022/02/25 09:34:05;;;;;;;8.02;3.47;;;12.20;96.70;;;;;;4979494;28;20165;-79
2022/02/25 09:36:34;;;;;;;5.45;3.72;;;12.30;96.70;;;;;;4945588;28;20102;-79
2022/02/25 09:39:02;;;;;;;7.15;3.10;;;12.40;96.70;;;;;;4985983;28;20050;-79
2022/02/25 09:41:31;;;;;;;7.60;3.45;;;12.60;96.70;;;;;;4982338;28;20128;-79
2022/02/25 09:43:59;;;;;;;5.20;2.92;;;12.60;96.70;;;;;;4966072;28;20043;-79
2022/02/25 09:46:27;;;;;;;8.05;3.78;;;12.70;96.70;;;;;;4965690;28;20042;-80
2022/02/25 09:48:57;;;;;;;6.78;3.33;;;12.70;96.70;;;;;;4963908;28;20053;-80
2022/02/25 09:51:25;;;;;;;13.20;4.70;;;12.70;96.70;;;;;;4963460;28;20124;-79
2022/02/25 09:53:54;;;;;;;10.65;3.70;;;12.70;96.70;;;;;;4966065;28;20081;-79
2022/02/25 09:56:24;;;;;;;8.00;3.78;;;12.70;96.70;;;;;;4964934;28;20038;-78
2022/02/25 09:58:57;;;;;;;8.65;3.85;;;12.70;96.70;;;;;;4981050;28;21388;-78
2022/02/25 10:01:31;;;;;;;6.07;3.47;;;12.80;96.70;;;;;;4948177;28;20105;-78
2022/02/25 10:04:10;;;;;;;5.35;3.38;;;12.90;96.70;;;;;;4965804;28;20519;-78
2022/02/25 10:06:38;;;;;;;7.95;4.22;;;13.00;96.70;;;;;;4983788;28;20407;-78
2022/02/25 10:09:13;;;;;;;6.32;4.20;;;13.00;96.70;;;;;;4984804;28;20530;-79
2022/02/25 10:12:01;;;;;;;6.97;4.18;;;13.00;96.70;;;;;;4987888;28;20121;-78
2022/02/25 10:14:31;;;;;;;10.70;5.47;;;13.00;96.70;;;;;;4997629;28;20046;-78
2022/02/25 10:17:12;;;;;;;11.70;5.13;;;13.00;96.70;;;;;;4980056;28;20096;-78
2022/02/25 10:19:44;;;;;;;10.75;4.68;;;13.00;96.70;;;;;;4984295;28;20089;-77
2022/02/25 10:22:22;;;;;;;7.80;3.78;;;13.10;96.70;;;;;;5000552;28;20053;-78
2022/02/25 10:24:52;;;;;;;8.02;4.00;;;13.10;96.70;;;;;;4984991;28;20148;-78
2022/02/25 10:27:29;;;;;;;8.45;4.35;;;13.20;96.70;;;;;;4985074;28;20062;-78
2022/02/25 10:30:04;;;;;;;11.07;4.50;;;13.20;96.70;;;;;;5000625;28;20427;-78
2022/02/25 10:32:35;;;;;;;7.38;4.72;;;13.20;96.70;;;;;;4987102;28;20053;-78
2022/02/25 10:35:26;;;;;;;7.55;5.28;;;13.20;96.70;;;;;;4999186;28;20096;-79
2022/02/25 10:38:00;;;;;;;11.80;5.60;;;13.10;96.70;;;;;;5000397;28;20057;-78
2022/02/25 10:40:31;;;;;;;9.13;5.50;;;13.20;96.70;;;;;;4999519;28;20145;-78
2022/02/25 10:43:00;;;;;;;9.25;5.20;;;13.20;96.70;;;;;;4986481;28;20045;-78
2022/02/25 10:45:36;;;;;;;12.55;5.70;;;13.30;96.70;;;;;;4985981;28;20038;-78
2022/02/25 10:48:07;;;;;;;10.15;5.40;;;13.50;96.70;;;;;;4987681;28;20042;-77
2022/02/25 10:50:48;;;;;;;10.95;6.22;;;13.60;96.70;;;;;;5002503;28;20054;-78
2022/02/25 10:53:18;;;;;;;10.00;5.60;;;13.70;96.70;;;;;;4982577;28;20047;-78
2022/02/25 10:55:49;;;;;;;9.63;5.93;;;13.70;96.70;;;;;;4999050;28;20545;-78
2022/02/25 10:58:18;;;;;;;9.13;5.63;;;13.80;96.70;;;;;;4986315;28;20038;-78
2022/02/25 11:01:01;;;;;;;11.35;6.00;;;13.80;96.70;;;;;;4985419;28;20145;-78
2022/02/25 11:03:30;;;;;;;9.52;5.60;;;13.70;96.70;;;;;;4986102;28;20105;-77
2022/02/25 11:06:00;;;;;;;7.60;5.18;;;13.60;96.70;;;;;;4987315;28;20051;-78
2022/02/25 11:08:28;;;;;;;10.50;5.50;;;13.60;96.70;;;;;;4972877;28;20584;-77
2022/02/25 11:11:00;;;;;;;10.52;5.47;;;13.60;96.70;;;;;;4985647;28;20153;-77
2022/02/25 11:13:29;;;;;;;12.05;5.22;;;13.70;96.70;;;;;;4994694;28;20435;-77
2022/02/25 11:15:59;;;;;;;8.57;4.97;;;13.70;96.70;;;;;;4986616;28;20050;-77
2022/02/25 11:18:27;;;;;;;11.77;4.50;;;13.70;96.70;;;;;;4980215;28;20062;-76
2022/02/25 11:20:57;;;;;;;10.07;4.15;;;13.70;96.70;;;;;;4995726;28;20051;-76
2022/02/25 11:23:27;;;;;;;7.00;4.32;;;13.80;96.70;;;;;;4989046;28;20046;-76
2022/02/25 11:25:56;;;;;;;7.97;4.45;;;13.90;96.70;;;;;;4988491;28;20042;-77
2022/02/25 11:28:25;;;;;;;11.35;3.80;;;13.90;96.70;;;;;;4999381;28;20042;-76
2022/02/25 11:31:00;;;;;;;8.93;4.15;;;13.80;96.70;;;;;;5000125;28;20050;-78
2022/02/25 11:33:30;;;;;;;9.03;4.03;;;13.80;96.70;;;;;;4988774;28;20050;-77
2022/02/25 11:36:00;;;;;;;9.93;4.68;;;13.80;96.70;;;;;;4982407;28;20414;-77
2022/02/25 11:38:33;;;;;;;8.25;4.20;;;13.70;96.70;;;;;;4969155;28;20117;-77
2022/02/25 11:41:04;;;;;;;9.13;3.75;;;13.70;96.70;;;;;;5001522;28;20129;-77
2022/02/25 11:43:40;;;;;;;6.82;4.47;;;13.70;96.70;;;;;;4983113;28;20050;-78
2022/02/25 11:46:11;;;;;;;8.70;4.03;;;13.70;96.70;;;;;;4986556;28;20050;-78
2022/02/25 11:48:48;;;;;;;9.70;4.50;;;13.70;96.70;;;;;;4984506;28;20046;-78
2022/02/25 11:51:35;;;;;;;9.32;4.53;;;13.60;96.70;;;;;;4997389;28;20046;-77
2022/02/25 11:54:41;;;;;;;7.57;3.45;;;13.60;96.70;;;;;;4998909;28;20046;-78
2022/02/25 11:57:26;;;;;;;10.65;4.03;;;13.50;96.70;;;;;;4985307;28;20435;-78
2022/02/25 12:00:16;;;;;;;8.38;3.90;;;13.40;96.70;;;;;;5002800;28;20049;-78
2022/02/25 12:03:13;;;;;;;6.95;3.13;;;13.50;96.70;;;;;;4987330;28;20034;-77
2022/02/25 12:05:47;;;;;;;8.77;4.13;;;13.50;96.70;;;;;;4985638;28;20116;-78
2022/02/25 12:08:24;;;;;;;11.85;4.53;;;13.50;96.70;;;;;;4986089;28;20045;-78
2022/02/25 12:10:57;;;;;;;6.88;4.20;;;13.50;96.70;;;;;;4997581;28;20050;-78
2022/02/25 12:13:27;;;;;;;8.68;4.55;;;13.50;96.70;;;;;;4985515;28;20070;-77
2022/02/25 12:15:55;;;;;;;10.07;4.85;;;13.50;96.70;;;;;;4997430;28;20061;-77
2022/02/25 12:18:38;;;;;;;8.10;4.88;;;13.50;96.70;;;;;;4999195;28;20581;-77
2022/02/25 12:21:11;;;;;;;10.85;4.63;;;13.50;96.70;;;;;;4987978;28;20042;-77
2022/02/25 12:23:46;;;;;;;11.43;5.28;;;13.40;96.70;;;;;;4981809;28;20046;-77
2022/02/25 12:26:18;;;;;;;9.93;5.03;;;13.40;96.70;;;;;;5000409;28;20141;-77
2022/02/25 12:28:50;;;;;;;9.73;5.03;;;13.30;96.70;;;;;;4985016;28;20042;-77
2022/02/25 12:31:25;;;;;;;11.57;5.20;;;13.20;96.70;;;;;;4986396;28;20455;-77
2022/02/25 12:34:01;;;;;;;11.00;5.20;;;13.20;96.70;;;;;;4982951;28;20054;-77
2022/02/25 12:36:44;;;;;;;8.20;4.82;;;13.20;96.70;;;;;;4983743;28;20042;-78
2022/02/25 12:39:18;;;;;;;8.05;3.25;;;13.20;96.70;;;;;;4996634;28;20137;-77
2022/02/25 12:41:56;;;;;;;5.43;3.40;;;13.20;96.70;;;;;;4984867;28;20448;-79
2022/02/25 12:44:30;;;;;;;10.32;3.72;;;13.20;96.70;;;;;;4983066;28;20042;-77
2022/02/25 12:47:00;;;;;;;6.72;4.30;;;13.30;96.70;;;;;;4986824;28;20089;-77
2022/02/25 12:49:30;;;;;;;8.10;5.07;;;13.30;96.70;;;;;;4998449;28;20276;-77
2022/02/25 12:52:00;;;;;;;7.72;4.97;;;13.40;96.70;;;;;;4985402;28;20726;-77
2022/02/25 12:54:30;;;;;;;6.18;4.20;;;13.50;96.70;;;;;;4985537;28;20136;-77
2022/02/25 12:57:02;;;;;;;9.20;4.97;;;13.60;96.70;;;;;;4982530;28;20139;-77
2022/02/25 12:59:33;;;;;;;8.98;4.65;;;13.60;96.70;;;;;;4981689;28;20035;-77
2022/02/25 13:02:03;;;;;;;9.25;4.38;;;13.70;96.70;;;;;;4983489;28;20068;-76
2022/02/25 13:04:38;;;;;;;9.30;5.10;;;13.70;96.70;;;;;;4987303;28;20049;-76
2022/02/25 13:07:07;;;;;;;10.38;4.70;;;13.70;96.70;;;;;;4983416;28;20085;-76
2022/02/25 13:09:36;;;;;;;16.80;10.00;;;13.70;96.70;;;;;;4982730;28;20072;-77
2022/02/25 13:12:08;;;;;;;13.10;8.00;;;13.70;96.70;;;;;;4985957;28;20042;-77
2022/02/25 13:14:40;;;;;;;17.08;8.30;;;13.70;96.70;;;;;;4982644;28;20044;-77
2022/02/25 13:17:10;;;;;;;18.85;11.70;;;13.60;96.70;;;;;;4987422;28;20129;-77